N605NK KDFW-KMZJ
Flight info
| Callsign | N605NK |
|---|---|
| Flight time | 2h 5m |
| Altitude | 28000 |
| Route | WSTEX2 CIKAN BGS SUMMY MOLLY SSO HOTTT SECBO |
| Aircraft | A320/M-SDE3FGHIRWXYZ/LB1 |
Departure
| Time | 2026-05-06 19:15 |
|---|---|
| Airport | Dallas Fort Worth International Airport (KDFW) |
Arrival
| Time | 2026-05-06 21:21 |
|---|---|
| Airport | Pinal Airpark (KMZJ) |
| Time | Latitude | Longitude | Altitude | Speed | Heading |
|---|---|---|---|---|---|
| 2026-05-06 18:37 | 32.88428 | -97.03542 | 616 ft | 0 kts | 270° |
| 2026-05-06 19:07 | 32.88428 | -97.03523 | 616 ft | 2 kts | 270° |
| 2026-05-06 19:07 | 32.88428 | -97.03502 | 616 ft | 2 kts | 301° |
| 2026-05-06 19:08 | 32.88416 | -97.03489 | 616 ft | 2 kts | 332° |
| 2026-05-06 19:08 | 32.88406 | -97.03485 | 618 ft | 0 kts | 358° |
| 2026-05-06 19:10 | 32.88408 | -97.03485 | 621 ft | 1 kts | 358° |
| 2026-05-06 19:10 | 32.88432 | -97.03486 | 616 ft | 6 kts | 358° |
| 2026-05-06 19:10 | 32.88484 | -97.03494 | 624 ft | 9 kts | 332° |
| 2026-05-06 19:11 | 32.88497 | -97.03579 | 623 ft | 13 kts | 269° |
| 2026-05-06 19:11 | 32.88497 | -97.03703 | 621 ft | 17 kts | 270° |
| 2026-05-06 19:11 | 32.88498 | -97.03862 | 620 ft | 21 kts | 270° |
| 2026-05-06 19:11 | 32.88499 | -97.04054 | 618 ft | 25 kts | 270° |
| 2026-05-06 19:12 | 32.88500 | -97.04253 | 626 ft | 23 kts | 270° |
| 2026-05-06 19:12 | 32.88501 | -97.04459 | 616 ft | 25 kts | 270° |
| 2026-05-06 19:12 | 32.88501 | -97.04635 | 626 ft | 22 kts | 270° |
| 2026-05-06 19:12 | 32.88502 | -97.04810 | 626 ft | 17 kts | 270° |
| 2026-05-06 19:13 | 32.88460 | -97.04895 | 625 ft | 13 kts | 185° |
| 2026-05-06 19:13 | 32.88358 | -97.04895 | 625 ft | 17 kts | 180° |
| 2026-05-06 19:13 | 32.88234 | -97.04896 | 625 ft | 18 kts | 180° |
| 2026-05-06 19:13 | 32.88094 | -97.04896 | 625 ft | 22 kts | 180° |
| 2026-05-06 19:14 | 32.87968 | -97.04896 | 616 ft | 14 kts | 180° |
| 2026-05-06 19:14 | 32.87902 | -97.04925 | 616 ft | 11 kts | 256° |
| 2026-05-06 19:14 | 32.87905 | -97.05004 | 620 ft | 10 kts | 273° |
| 2026-05-06 19:14 | 32.87913 | -97.05087 | 616 ft | 8 kts | 305° |
| 2026-05-06 19:15 | 32.87975 | -97.05092 | 616 ft | 12 kts | 1° |
| 2026-05-06 19:15 | 32.88324 | -97.05089 | 619 ft | 91 kts | 0° |
| 2026-05-06 19:15 | 32.89190 | -97.05084 | 625 ft | 154 kts | 0° |
| 2026-05-06 19:15 | 32.90314 | -97.05084 | 1255 ft | 161 kts | 359° |
| 2026-05-06 19:16 | 32.91434 | -97.05127 | 2146 ft | 160 kts | 358° |
| 2026-05-06 19:16 | 32.92580 | -97.05177 | 2802 ft | 173 kts | 358° |
| 2026-05-06 19:16 | 32.93867 | -97.05233 | 3264 ft | 198 kts | 359° |
| 2026-05-06 19:16 | 32.95296 | -97.05625 | 3783 ft | 226 kts | 341° |
| 2026-05-06 19:17 | 32.96849 | -97.06294 | 4503 ft | 246 kts | 341° |
| 2026-05-06 19:17 | 32.98489 | -97.07005 | 5504 ft | 255 kts | 337° |
| 2026-05-06 19:17 | 32.99958 | -97.08218 | 6532 ft | 263 kts | 311° |
| 2026-05-06 19:17 | 33.00851 | -97.10121 | 7644 ft | 267 kts | 286° |
| 2026-05-06 19:18 | 33.00984 | -97.12332 | 8757 ft | 270 kts | 266° |
| 2026-05-06 19:18 | 33.00849 | -97.14530 | 9843 ft | 270 kts | 265° |
| 2026-05-06 19:18 | 33.00707 | -97.16760 | 10901 ft | 270 kts | 264° |
| 2026-05-06 19:18 | 33.00523 | -97.19041 | 11542 ft | 287 kts | 261° |
| 2026-05-06 19:19 | 33.00274 | -97.21501 | 11885 ft | 311 kts | 259° |
| 2026-05-06 19:19 | 32.99694 | -97.24041 | 12388 ft | 323 kts | 244° |
| 2026-05-06 19:19 | 32.98471 | -97.26303 | 13191 ft | 327 kts | 232° |
| 2026-05-06 19:19 | 32.97072 | -97.28450 | 14079 ft | 329 kts | 233° |
| 2026-05-06 19:20 | 32.95672 | -97.30611 | 14979 ft | 330 kts | 233° |
| 2026-05-06 19:20 | 32.94275 | -97.32776 | 15838 ft | 330 kts | 233° |
| 2026-05-06 19:20 | 32.92873 | -97.34947 | 16680 ft | 331 kts | 233° |
| 2026-05-06 19:20 | 32.91465 | -97.37121 | 17523 ft | 332 kts | 233° |
| 2026-05-06 19:21 | 32.90050 | -97.39301 | 18372 ft | 333 kts | 233° |
| 2026-05-06 19:21 | 32.88630 | -97.41488 | 19218 ft | 335 kts | 233° |
| 2026-05-06 19:21 | 32.87200 | -97.43691 | 20015 ft | 338 kts | 234° |
| 2026-05-06 19:21 | 32.85758 | -97.45911 | 20792 ft | 341 kts | 234° |
| 2026-05-06 19:22 | 32.84302 | -97.48150 | 21484 ft | 344 kts | 234° |
| 2026-05-06 19:22 | 32.82831 | -97.50411 | 22149 ft | 346 kts | 234° |
| 2026-05-06 19:22 | 32.81348 | -97.52683 | 22776 ft | 349 kts | 234° |
| 2026-05-06 19:22 | 32.79854 | -97.54970 | 23374 ft | 352 kts | 234° |
| 2026-05-06 19:23 | 32.78350 | -97.57276 | 23939 ft | 355 kts | 234° |
| 2026-05-06 19:23 | 32.76833 | -97.59604 | 24499 ft | 358 kts | 234° |
| 2026-05-06 19:23 | 32.75302 | -97.61945 | 25025 ft | 360 kts | 234° |
| 2026-05-06 19:23 | 32.73780 | -97.64269 | 25545 ft | 362 kts | 234° |
| 2026-05-06 19:24 | 32.72231 | -97.66628 | 26052 ft | 363 kts | 234° |
| 2026-05-06 19:24 | 32.70673 | -97.69006 | 26566 ft | 365 kts | 234° |
| 2026-05-06 19:24 | 32.69180 | -97.71452 | 27059 ft | 366 kts | 240° |
| 2026-05-06 19:24 | 32.68095 | -97.74193 | 27536 ft | 368 kts | 250° |
| 2026-05-06 19:25 | 32.67506 | -97.77161 | 27936 ft | 372 kts | 259° |
| 2026-05-06 19:25 | 32.67010 | -97.83312 | 28045 ft | 374 kts | 261° |
| 2026-05-06 19:26 | 32.66552 | -97.89430 | 28054 ft | 374 kts | 261° |
| 2026-05-06 19:26 | 32.66082 | -97.95593 | 28053 ft | 375 kts | 261° |
| 2026-05-06 19:27 | 32.65594 | -98.01752 | 28046 ft | 375 kts | 261° |
| 2026-05-06 19:27 | 32.65104 | -98.07902 | 28045 ft | 374 kts | 261° |
| 2026-05-06 19:28 | 32.64614 | -98.14052 | 28043 ft | 374 kts | 261° |
| 2026-05-06 19:28 | 32.64121 | -98.20186 | 28041 ft | 373 kts | 261° |
| 2026-05-06 19:29 | 32.63624 | -98.26322 | 28036 ft | 373 kts | 260° |
| 2026-05-06 19:29 | 32.63127 | -98.32419 | 28033 ft | 373 kts | 260° |
| 2026-05-06 19:30 | 32.62628 | -98.38547 | 28031 ft | 373 kts | 260° |
| 2026-05-06 19:30 | 32.62131 | -98.44677 | 28036 ft | 373 kts | 260° |
| 2026-05-06 19:31 | 32.61623 | -98.50787 | 28037 ft | 372 kts | 260° |
| 2026-05-06 19:31 | 32.60860 | -98.59949 | 28036 ft | 372 kts | 260° |
| 2026-05-06 19:32 | 32.60349 | -98.66057 | 28039 ft | 372 kts | 260° |
| 2026-05-06 19:32 | 32.59834 | -98.72167 | 28039 ft | 372 kts | 260° |
| 2026-05-06 19:33 | 32.59317 | -98.78261 | 28039 ft | 372 kts | 260° |
| 2026-05-06 19:33 | 32.58800 | -98.84321 | 28036 ft | 371 kts | 260° |
| 2026-05-06 19:34 | 32.58275 | -98.90413 | 28032 ft | 371 kts | 260° |
| 2026-05-06 19:34 | 32.57748 | -98.96492 | 28030 ft | 371 kts | 260° |
| 2026-05-06 19:35 | 32.57227 | -99.02576 | 28029 ft | 370 kts | 260° |
| 2026-05-06 19:35 | 32.56702 | -99.08644 | 28031 ft | 370 kts | 260° |
| 2026-05-06 19:36 | 32.56168 | -99.14710 | 28033 ft | 370 kts | 260° |
| 2026-05-06 19:36 | 32.55629 | -99.20775 | 28034 ft | 370 kts | 259° |
| 2026-05-06 19:37 | 32.55090 | -99.26836 | 28037 ft | 369 kts | 259° |
| 2026-05-06 19:37 | 32.54646 | -99.31864 | 28038 ft | 369 kts | 259° |
| 2026-05-06 19:38 | 32.54119 | -99.38954 | 28036 ft | 370 kts | 261° |
| 2026-05-06 19:38 | 32.53844 | -99.44016 | 28036 ft | 370 kts | 262° |
| 2026-05-06 19:39 | 32.53520 | -99.50105 | 28039 ft | 370 kts | 261° |
| 2026-05-06 19:39 | 32.53101 | -99.57175 | 28041 ft | 370 kts | 261° |
| 2026-05-06 19:40 | 32.52786 | -99.62267 | 28042 ft | 370 kts | 261° |
| 2026-05-06 19:40 | 32.52409 | -99.68345 | 28043 ft | 370 kts | 261° |
| 2026-05-06 19:41 | 32.52031 | -99.74387 | 28040 ft | 370 kts | 261° |
| 2026-05-06 19:41 | 32.51646 | -99.80464 | 28035 ft | 370 kts | 261° |
| 2026-05-06 19:42 | 32.51263 | -99.86538 | 28029 ft | 370 kts | 261° |
| 2026-05-06 19:42 | 32.50886 | -99.92612 | 28024 ft | 370 kts | 261° |
| 2026-05-06 19:43 | 32.50501 | -99.98682 | 28025 ft | 369 kts | 261° |
| 2026-05-06 19:43 | 32.50106 | -100.04749 | 28021 ft | 369 kts | 261° |
| 2026-05-06 19:44 | 32.49706 | -100.10822 | 28029 ft | 369 kts | 261° |
| 2026-05-06 19:44 | 32.49311 | -100.16889 | 28030 ft | 369 kts | 261° |
| 2026-05-06 19:45 | 32.48913 | -100.22959 | 28038 ft | 370 kts | 261° |
| 2026-05-06 19:45 | 32.48513 | -100.28989 | 28046 ft | 370 kts | 261° |
| 2026-05-06 19:46 | 32.48085 | -100.35057 | 28052 ft | 370 kts | 260° |
| 2026-05-06 19:46 | 32.47597 | -100.41113 | 28061 ft | 369 kts | 260° |
| 2026-05-06 19:47 | 32.47101 | -100.47170 | 28066 ft | 370 kts | 260° |
| 2026-05-06 19:47 | 32.46603 | -100.53234 | 28070 ft | 369 kts | 260° |
| 2026-05-06 19:48 | 32.46112 | -100.59292 | 28073 ft | 369 kts | 260° |
| 2026-05-06 19:48 | 32.45626 | -100.65338 | 28073 ft | 369 kts | 260° |
| 2026-05-06 19:49 | 32.45133 | -100.71390 | 28071 ft | 369 kts | 259° |
| 2026-05-06 19:49 | 32.44633 | -100.77396 | 28068 ft | 369 kts | 259° |
| 2026-05-06 19:50 | 32.44127 | -100.83441 | 28061 ft | 369 kts | 259° |
| 2026-05-06 19:50 | 32.43626 | -100.89481 | 28055 ft | 369 kts | 259° |
| 2026-05-06 19:51 | 32.43123 | -100.95533 | 28056 ft | 369 kts | 259° |
| 2026-05-06 19:51 | 32.42612 | -101.01580 | 28054 ft | 369 kts | 259° |
| 2026-05-06 19:52 | 32.42096 | -101.07619 | 28048 ft | 369 kts | 259° |
| 2026-05-06 19:52 | 32.41574 | -101.13673 | 28046 ft | 370 kts | 259° |
| 2026-05-06 19:53 | 32.41055 | -101.19696 | 28046 ft | 370 kts | 259° |
| 2026-05-06 19:53 | 32.40539 | -101.25760 | 28042 ft | 370 kts | 259° |
| 2026-05-06 19:54 | 32.40014 | -101.31827 | 28039 ft | 370 kts | 259° |
| 2026-05-06 19:54 | 32.39483 | -101.37897 | 28035 ft | 371 kts | 259° |
| 2026-05-06 19:55 | 32.38946 | -101.43976 | 28034 ft | 371 kts | 258° |
| 2026-05-06 19:55 | 32.38411 | -101.50059 | 28033 ft | 372 kts | 259° |
| 2026-05-06 19:56 | 32.37933 | -101.56166 | 28033 ft | 373 kts | 259° |
| 2026-05-06 19:56 | 32.37479 | -101.62256 | 28032 ft | 374 kts | 259° |
| 2026-05-06 19:57 | 32.37014 | -101.68391 | 28033 ft | 374 kts | 259° |
| 2026-05-06 19:57 | 32.36533 | -101.74527 | 28034 ft | 374 kts | 259° |
| 2026-05-06 19:58 | 32.36038 | -101.80662 | 28036 ft | 375 kts | 259° |
| 2026-05-06 19:58 | 32.35540 | -101.86801 | 28036 ft | 375 kts | 259° |
| 2026-05-06 19:59 | 32.35044 | -101.92942 | 28037 ft | 375 kts | 259° |
| 2026-05-06 19:59 | 32.34553 | -101.99093 | 28039 ft | 375 kts | 259° |
| 2026-05-06 20:00 | 32.34057 | -102.05243 | 28044 ft | 376 kts | 259° |
| 2026-05-06 20:00 | 32.33563 | -102.11396 | 28047 ft | 376 kts | 259° |
| 2026-05-06 20:01 | 32.33054 | -102.17544 | 28046 ft | 376 kts | 258° |
| 2026-05-06 20:01 | 32.32539 | -102.23700 | 28048 ft | 376 kts | 259° |
| 2026-05-06 20:02 | 32.32028 | -102.29855 | 28048 ft | 376 kts | 259° |
| 2026-05-06 20:02 | 32.31520 | -102.35957 | 28052 ft | 375 kts | 259° |
| 2026-05-06 20:03 | 32.31001 | -102.42095 | 28051 ft | 375 kts | 259° |
| 2026-05-06 20:03 | 32.30481 | -102.48229 | 28052 ft | 375 kts | 259° |
| 2026-05-06 20:04 | 32.29963 | -102.54353 | 28055 ft | 374 kts | 259° |
| 2026-05-06 20:04 | 32.29438 | -102.60470 | 28057 ft | 374 kts | 259° |
| 2026-05-06 20:05 | 32.28913 | -102.66589 | 28061 ft | 374 kts | 259° |
| 2026-05-06 20:05 | 32.28385 | -102.72693 | 28061 ft | 373 kts | 259° |
| 2026-05-06 20:06 | 32.27851 | -102.78764 | 28060 ft | 373 kts | 259° |
| 2026-05-06 20:06 | 32.27312 | -102.84859 | 28064 ft | 372 kts | 259° |
| 2026-05-06 20:07 | 32.26782 | -102.90939 | 28062 ft | 372 kts | 259° |
| 2026-05-06 20:07 | 32.26252 | -102.97007 | 28060 ft | 371 kts | 259° |
| 2026-05-06 20:08 | 32.25711 | -103.03063 | 28056 ft | 370 kts | 259° |
| 2026-05-06 20:08 | 32.25164 | -103.09116 | 28048 ft | 370 kts | 259° |
| 2026-05-06 20:09 | 32.24625 | -103.15161 | 28044 ft | 370 kts | 259° |
| 2026-05-06 20:09 | 32.24083 | -103.21163 | 28041 ft | 370 kts | 259° |
| 2026-05-06 20:10 | 32.23534 | -103.27196 | 28039 ft | 369 kts | 259° |
| 2026-05-06 20:10 | 32.22975 | -103.33224 | 28029 ft | 369 kts | 259° |
| 2026-05-06 20:11 | 32.22415 | -103.39253 | 28022 ft | 369 kts | 259° |
| 2026-05-06 20:11 | 32.21862 | -103.45278 | 28018 ft | 369 kts | 259° |
| 2026-05-06 20:12 | 32.21306 | -103.51305 | 28013 ft | 369 kts | 259° |
| 2026-05-06 20:12 | 32.20744 | -103.57324 | 28022 ft | 369 kts | 259° |
| 2026-05-06 20:13 | 32.20179 | -103.63349 | 28015 ft | 369 kts | 259° |
| 2026-05-06 20:13 | 32.19616 | -103.69341 | 28028 ft | 369 kts | 259° |
| 2026-05-06 20:14 | 32.19043 | -103.75369 | 28020 ft | 369 kts | 259° |
| 2026-05-06 20:14 | 32.18466 | -103.81393 | 28030 ft | 369 kts | 259° |
| 2026-05-06 20:15 | 32.17889 | -103.87414 | 28020 ft | 369 kts | 259° |
| 2026-05-06 20:15 | 32.17309 | -103.93439 | 28013 ft | 369 kts | 259° |
| 2026-05-06 20:16 | 32.16730 | -103.99469 | 28007 ft | 370 kts | 259° |
| 2026-05-06 20:16 | 32.16143 | -104.05492 | 28000 ft | 370 kts | 259° |
| 2026-05-06 20:17 | 32.15552 | -104.11482 | 27995 ft | 369 kts | 259° |
| 2026-05-06 20:17 | 32.15251 | -104.14493 | 27998 ft | 369 kts | 259° |
| 2026-05-06 20:17 | 32.14954 | -104.17502 | 27999 ft | 369 kts | 259° |
| 2026-05-06 20:18 | 32.14659 | -104.20511 | 27995 ft | 369 kts | 259° |
| 2026-05-06 20:18 | 32.14364 | -104.23521 | 27997 ft | 369 kts | 259° |
| 2026-05-06 20:18 | 32.14066 | -104.26529 | 27996 ft | 369 kts | 259° |
| 2026-05-06 20:18 | 32.13764 | -104.29536 | 27995 ft | 369 kts | 259° |
| 2026-05-06 20:19 | 32.13461 | -104.32542 | 27994 ft | 369 kts | 259° |
| 2026-05-06 20:19 | 32.13162 | -104.35547 | 27994 ft | 369 kts | 259° |
| 2026-05-06 20:19 | 32.12865 | -104.38555 | 27997 ft | 369 kts | 259° |
| 2026-05-06 20:19 | 32.12569 | -104.41555 | 27997 ft | 368 kts | 259° |
| 2026-05-06 20:20 | 32.12269 | -104.44560 | 27993 ft | 368 kts | 259° |
| 2026-05-06 20:20 | 32.11968 | -104.47559 | 27993 ft | 368 kts | 259° |
| 2026-05-06 20:20 | 32.11352 | -104.53553 | 28015 ft | 368 kts | 259° |
| 2026-05-06 20:21 | 32.10742 | -104.59555 | 28008 ft | 367 kts | 259° |
| 2026-05-06 20:21 | 32.10142 | -104.65499 | 28015 ft | 368 kts | 259° |
| 2026-05-06 20:22 | 32.09528 | -104.71477 | 28015 ft | 367 kts | 258° |
| 2026-05-06 20:22 | 32.08901 | -104.77444 | 28008 ft | 367 kts | 258° |
| 2026-05-06 20:23 | 32.08274 | -104.83417 | 28002 ft | 367 kts | 258° |
| 2026-05-06 20:23 | 32.07967 | -104.86404 | 27999 ft | 367 kts | 258° |
| 2026-05-06 20:23 | 32.07661 | -104.89390 | 28006 ft | 367 kts | 258° |
| 2026-05-06 20:24 | 32.07042 | -104.95372 | 28008 ft | 367 kts | 258° |
| 2026-05-06 20:24 | 32.06413 | -105.01352 | 28016 ft | 367 kts | 258° |
| 2026-05-06 20:25 | 32.05777 | -105.07334 | 28014 ft | 367 kts | 258° |
| 2026-05-06 20:25 | 32.05148 | -105.13308 | 28013 ft | 367 kts | 258° |
| 2026-05-06 20:26 | 32.04511 | -105.19285 | 28018 ft | 367 kts | 258° |
| 2026-05-06 20:26 | 32.03871 | -105.25227 | 28018 ft | 367 kts | 258° |
| 2026-05-06 20:27 | 32.03233 | -105.31202 | 28022 ft | 367 kts | 258° |
| 2026-05-06 20:27 | 32.02590 | -105.37177 | 28024 ft | 367 kts | 258° |
| 2026-05-06 20:28 | 32.01944 | -105.43156 | 28025 ft | 368 kts | 258° |
| 2026-05-06 20:28 | 32.01400 | -105.48126 | 28028 ft | 368 kts | 258° |
| 2026-05-06 20:29 | 32.00742 | -105.54110 | 28028 ft | 368 kts | 258° |
| 2026-05-06 20:29 | 32.00090 | -105.60100 | 28031 ft | 369 kts | 258° |
| 2026-05-06 20:30 | 31.99092 | -105.69087 | 28033 ft | 369 kts | 257° |
| 2026-05-06 20:31 | 31.98886 | -105.75168 | 28037 ft | 378 kts | 268° |
| 2026-05-06 20:31 | 31.99388 | -105.81342 | 28043 ft | 379 kts | 268° |
| 2026-05-06 20:32 | 31.99961 | -105.88524 | 28050 ft | 378 kts | 268° |
| 2026-05-06 20:32 | 32.00365 | -105.93654 | 28061 ft | 378 kts | 268° |
| 2026-05-06 20:33 | 32.00850 | -105.99820 | 28073 ft | 378 kts | 268° |
| 2026-05-06 20:33 | 32.01331 | -106.05989 | 28072 ft | 378 kts | 268° |
| 2026-05-06 20:34 | 32.01814 | -106.12165 | 28069 ft | 378 kts | 268° |
| 2026-05-06 20:34 | 32.02292 | -106.18340 | 28068 ft | 378 kts | 268° |
| 2026-05-06 20:35 | 32.02764 | -106.24510 | 28064 ft | 378 kts | 268° |
| 2026-05-06 20:35 | 32.03234 | -106.30687 | 28062 ft | 378 kts | 268° |
| 2026-05-06 20:36 | 32.03699 | -106.36859 | 28062 ft | 378 kts | 268° |
| 2026-05-06 20:36 | 32.04165 | -106.43033 | 28067 ft | 378 kts | 268° |
| 2026-05-06 20:37 | 32.04624 | -106.49166 | 28077 ft | 378 kts | 268° |
| 2026-05-06 20:37 | 32.05085 | -106.55340 | 28078 ft | 378 kts | 268° |
| 2026-05-06 20:38 | 32.05546 | -106.61512 | 28077 ft | 378 kts | 268° |
| 2026-05-06 20:38 | 32.05995 | -106.67684 | 28076 ft | 377 kts | 268° |
| 2026-05-06 20:39 | 32.06441 | -106.73856 | 28076 ft | 378 kts | 268° |
| 2026-05-06 20:39 | 32.06978 | -106.80022 | 28075 ft | 379 kts | 269° |
| 2026-05-06 20:40 | 32.07565 | -106.86200 | 28077 ft | 379 kts | 269° |
| 2026-05-06 20:40 | 32.08137 | -106.92374 | 28082 ft | 379 kts | 269° |
| 2026-05-06 20:41 | 32.08693 | -106.98549 | 28088 ft | 379 kts | 269° |
| 2026-05-06 20:41 | 32.09238 | -107.04685 | 28084 ft | 379 kts | 269° |
| 2026-05-06 20:42 | 32.09774 | -107.10861 | 28082 ft | 379 kts | 269° |
| 2026-05-06 20:42 | 32.10319 | -107.17050 | 28081 ft | 379 kts | 269° |
| 2026-05-06 20:43 | 32.10864 | -107.23240 | 28081 ft | 379 kts | 269° |
| 2026-05-06 20:43 | 32.11401 | -107.29432 | 28082 ft | 379 kts | 269° |
| 2026-05-06 20:44 | 32.11939 | -107.35628 | 28080 ft | 380 kts | 269° |
| 2026-05-06 20:44 | 32.12478 | -107.41833 | 28082 ft | 380 kts | 269° |
| 2026-05-06 20:45 | 32.13003 | -107.48038 | 28083 ft | 381 kts | 269° |
| 2026-05-06 20:45 | 32.13525 | -107.54257 | 28081 ft | 381 kts | 269° |
| 2026-05-06 20:46 | 32.14050 | -107.60438 | 28082 ft | 381 kts | 269° |
| 2026-05-06 20:46 | 32.14572 | -107.66660 | 28093 ft | 381 kts | 269° |
| 2026-05-06 20:47 | 32.15094 | -107.72892 | 28092 ft | 382 kts | 269° |
| 2026-05-06 20:47 | 32.15616 | -107.79137 | 28090 ft | 382 kts | 269° |
| 2026-05-06 20:48 | 32.16136 | -107.85385 | 28094 ft | 383 kts | 269° |
| 2026-05-06 20:48 | 32.16650 | -107.91637 | 28094 ft | 383 kts | 269° |
| 2026-05-06 20:49 | 32.17160 | -107.97903 | 28099 ft | 384 kts | 269° |
| 2026-05-06 20:49 | 32.17664 | -108.04175 | 28097 ft | 384 kts | 269° |
| 2026-05-06 20:50 | 32.18166 | -108.10447 | 28097 ft | 384 kts | 268° |
| 2026-05-06 20:50 | 32.18659 | -108.16689 | 28098 ft | 384 kts | 268° |
| 2026-05-06 20:51 | 32.19158 | -108.22966 | 28102 ft | 384 kts | 269° |
| 2026-05-06 20:51 | 32.19661 | -108.29239 | 28103 ft | 384 kts | 268° |
| 2026-05-06 20:52 | 32.20156 | -108.35511 | 28106 ft | 384 kts | 269° |
| 2026-05-06 20:52 | 32.20645 | -108.41782 | 28111 ft | 384 kts | 269° |
| 2026-05-06 20:53 | 32.21131 | -108.48055 | 28115 ft | 383 kts | 269° |
| 2026-05-06 20:53 | 32.21611 | -108.54327 | 28113 ft | 383 kts | 268° |
| 2026-05-06 20:54 | 32.22086 | -108.60593 | 28107 ft | 383 kts | 269° |
| 2026-05-06 20:54 | 32.22565 | -108.66870 | 28107 ft | 384 kts | 269° |
| 2026-05-06 20:55 | 32.23037 | -108.73101 | 28107 ft | 384 kts | 269° |
| 2026-05-06 20:55 | 32.23507 | -108.79388 | 28104 ft | 384 kts | 269° |
| 2026-05-06 20:56 | 32.23974 | -108.85680 | 28102 ft | 385 kts | 269° |
| 2026-05-06 20:56 | 32.24440 | -108.91979 | 28100 ft | 385 kts | 269° |
| 2026-05-06 20:57 | 32.24904 | -108.98283 | 28100 ft | 385 kts | 269° |
| 2026-05-06 20:57 | 32.25363 | -109.04585 | 28103 ft | 386 kts | 269° |
| 2026-05-06 20:58 | 32.25820 | -109.10898 | 28104 ft | 386 kts | 269° |
| 2026-05-06 20:58 | 32.26275 | -109.17167 | 28103 ft | 386 kts | 269° |
| 2026-05-06 20:59 | 32.26722 | -109.23486 | 28099 ft | 386 kts | 269° |
| 2026-05-06 20:59 | 32.27454 | -109.29794 | 28100 ft | 390 kts | 274° |
| 2026-05-06 21:00 | 32.28424 | -109.36096 | 28102 ft | 390 kts | 273° |
| 2026-05-06 21:00 | 32.29382 | -109.42404 | 28098 ft | 389 kts | 273° |
| 2026-05-06 21:01 | 32.30330 | -109.48712 | 28095 ft | 390 kts | 273° |
| 2026-05-06 21:01 | 32.31276 | -109.55028 | 28089 ft | 390 kts | 273° |
| 2026-05-06 21:02 | 32.32227 | -109.61336 | 28092 ft | 390 kts | 273° |
| 2026-05-06 21:02 | 32.33177 | -109.67646 | 28105 ft | 390 kts | 273° |
| 2026-05-06 21:03 | 32.34122 | -109.73965 | 28112 ft | 390 kts | 273° |
| 2026-05-06 21:03 | 32.35054 | -109.80244 | 28112 ft | 390 kts | 273° |
| 2026-05-06 21:04 | 32.35995 | -109.86568 | 28114 ft | 390 kts | 273° |
| 2026-05-06 21:04 | 32.36933 | -109.92885 | 28122 ft | 390 kts | 273° |
| 2026-05-06 21:05 | 32.37866 | -109.99197 | 28127 ft | 389 kts | 273° |
| 2026-05-06 21:05 | 32.38791 | -110.05512 | 28121 ft | 389 kts | 272° |
| 2026-05-06 21:06 | 32.39709 | -110.11831 | 27896 ft | 391 kts | 273° |
| 2026-05-06 21:06 | 32.40169 | -110.15011 | 27653 ft | 392 kts | 273° |
| 2026-05-06 21:06 | 32.40634 | -110.18195 | 27262 ft | 392 kts | 273° |
| 2026-05-06 21:06 | 32.41101 | -110.21360 | 26474 ft | 386 kts | 274° |
| 2026-05-06 21:07 | 32.41558 | -110.24469 | 25703 ft | 381 kts | 274° |
| 2026-05-06 21:07 | 32.42003 | -110.27537 | 24935 ft | 376 kts | 274° |
| 2026-05-06 21:07 | 32.42441 | -110.30580 | 24173 ft | 373 kts | 275° |
| 2026-05-06 21:07 | 32.42866 | -110.33550 | 23435 ft | 370 kts | 275° |
| 2026-05-06 21:08 | 32.43295 | -110.36540 | 22690 ft | 368 kts | 276° |
| 2026-05-06 21:08 | 32.43723 | -110.39520 | 21943 ft | 367 kts | 276° |
| 2026-05-06 21:08 | 32.44147 | -110.42494 | 21205 ft | 366 kts | 276° |
| 2026-05-06 21:08 | 32.44571 | -110.45468 | 20472 ft | 366 kts | 276° |
| 2026-05-06 21:09 | 32.44996 | -110.48442 | 19755 ft | 366 kts | 277° |
| 2026-05-06 21:09 | 32.45421 | -110.51402 | 19064 ft | 364 kts | 277° |
| 2026-05-06 21:09 | 32.45842 | -110.54343 | 18413 ft | 361 kts | 277° |
| 2026-05-06 21:09 | 32.46257 | -110.57267 | 17645 ft | 360 kts | 277° |
| 2026-05-06 21:10 | 32.46666 | -110.60174 | 16990 ft | 356 kts | 277° |
| 2026-05-06 21:10 | 32.47071 | -110.63042 | 16350 ft | 351 kts | 278° |
| 2026-05-06 21:10 | 32.47471 | -110.65871 | 15718 ft | 347 kts | 278° |
| 2026-05-06 21:10 | 32.47868 | -110.68676 | 15056 ft | 344 kts | 278° |
| 2026-05-06 21:11 | 32.48260 | -110.71459 | 14365 ft | 342 kts | 278° |
| 2026-05-06 21:11 | 32.48649 | -110.74229 | 13675 ft | 340 kts | 278° |
| 2026-05-06 21:11 | 32.49037 | -110.76989 | 12975 ft | 339 kts | 278° |
| 2026-05-06 21:11 | 32.49423 | -110.79744 | 12243 ft | 339 kts | 279° |
| 2026-05-06 21:12 | 32.49808 | -110.82490 | 11521 ft | 338 kts | 279° |
| 2026-05-06 21:12 | 32.50191 | -110.85240 | 10844 ft | 337 kts | 279° |
| 2026-05-06 21:12 | 32.50566 | -110.87910 | 10693 ft | 320 kts | 279° |
| 2026-05-06 21:12 | 32.50922 | -110.90447 | 10573 ft | 305 kts | 279° |
| 2026-05-06 21:13 | 32.51261 | -110.92879 | 10378 ft | 295 kts | 279° |
| 2026-05-06 21:13 | 32.51591 | -110.95246 | 10123 ft | 289 kts | 279° |
| 2026-05-06 21:13 | 32.51917 | -110.97585 | 9880 ft | 287 kts | 279° |
| 2026-05-06 21:13 | 32.51939 | -110.99924 | 9680 ft | 282 kts | 257° |
| 2026-05-06 21:14 | 32.51113 | -111.01981 | 9456 ft | 275 kts | 230° |
| 2026-05-06 21:14 | 32.49676 | -111.03345 | 9226 ft | 258 kts | 211° |
| 2026-05-06 21:14 | 32.48157 | -111.04357 | 9010 ft | 246 kts | 209° |
| 2026-05-06 21:14 | 32.46658 | -111.05328 | 8791 ft | 245 kts | 211° |
| 2026-05-06 21:15 | 32.45269 | -111.06485 | 8561 ft | 243 kts | 218° |
| 2026-05-06 21:15 | 32.43969 | -111.07689 | 8104 ft | 240 kts | 219° |
| 2026-05-06 21:15 | 32.42650 | -111.08926 | 7585 ft | 238 kts | 219° |
| 2026-05-06 21:15 | 32.41461 | -111.10233 | 7068 ft | 236 kts | 227° |
| 2026-05-06 21:16 | 32.40360 | -111.11665 | 6542 ft | 234 kts | 229° |
| 2026-05-06 21:16 | 32.39281 | -111.13104 | 6029 ft | 233 kts | 231° |
| 2026-05-06 21:16 | 32.38570 | -111.14771 | 5588 ft | 225 kts | 262° |
| 2026-05-06 21:16 | 32.38588 | -111.16570 | 5211 ft | 216 kts | 277° |
| 2026-05-06 21:17 | 32.38809 | -111.18290 | 4957 ft | 203 kts | 289° |
| 2026-05-06 21:17 | 32.39470 | -111.19683 | 4730 ft | 189 kts | 309° |
| 2026-05-06 21:17 | 32.40384 | -111.20783 | 4294 ft | 187 kts | 318° |
| 2026-05-06 21:17 | 32.41331 | -111.21782 | 4050 ft | 177 kts | 319° |
| 2026-05-06 21:18 | 32.41942 | -111.22420 | 3943 ft | 177 kts | 319° |
| 2026-05-06 21:18 | 32.42867 | -111.23382 | 3791 ft | 172 kts | 319° |
| 2026-05-06 21:18 | 32.43740 | -111.24291 | 3609 ft | 159 kts | 319° |
| 2026-05-06 21:18 | 32.44520 | -111.25109 | 3441 ft | 143 kts | 318° |
| 2026-05-06 21:19 | 32.45216 | -111.25874 | 3274 ft | 131 kts | 317° |
| 2026-05-06 21:19 | 32.45854 | -111.26599 | 3104 ft | 124 kts | 316° |
| 2026-05-06 21:19 | 32.46455 | -111.27324 | 2922 ft | 123 kts | 315° |
| 2026-05-06 21:19 | 32.47077 | -111.28029 | 2773 ft | 126 kts | 316° |
| 2026-05-06 21:20 | 32.47749 | -111.28731 | 2667 ft | 131 kts | 316° |
| 2026-05-06 21:20 | 32.48401 | -111.29474 | 2534 ft | 128 kts | 316° |
| 2026-05-06 21:20 | 32.49019 | -111.30232 | 2356 ft | 128 kts | 315° |
| 2026-05-06 21:20 | 32.49639 | -111.30970 | 2212 ft | 126 kts | 317° |
| 2026-05-06 21:21 | 32.50264 | -111.31695 | 2012 ft | 126 kts | 316° |
| 2026-05-06 21:21 | 32.50867 | -111.32397 | 1894 ft | 109 kts | 315° |
| 2026-05-06 21:21 | 32.51213 | -111.32806 | 1880 ft | 40 kts | 314° |
| 2026-05-06 21:21 | 32.51399 | -111.33032 | 1885 ft | 38 kts | 314° |
| 2026-05-06 21:22 | 32.51562 | -111.33219 | 1883 ft | 27 kts | 316° |
| 2026-05-06 21:22 | 32.51672 | -111.33286 | 1882 ft | 20 kts | 360° |
| 2026-05-06 21:22 | 32.51737 | -111.33247 | 1882 ft | 10 kts | 78° |
| 2026-05-06 21:22 | 32.51709 | -111.33156 | 1886 ft | 14 kts | 133° |
| 2026-05-06 21:23 | 32.51633 | -111.33062 | 1884 ft | 18 kts | 134° |
| 2026-05-06 21:23 | 32.51536 | -111.32949 | 1885 ft | 22 kts | 134° |
| 2026-05-06 21:23 | 32.51440 | -111.32836 | 1886 ft | 21 kts | 135° |
| 2026-05-06 21:23 | 32.51341 | -111.32718 | 1884 ft | 21 kts | 134° |
| 2026-05-06 21:24 | 32.51229 | -111.32585 | 1892 ft | 25 kts | 135° |
| 2026-05-06 21:24 | 32.51129 | -111.32452 | 1895 ft | 16 kts | 112° |
| 2026-05-06 21:24 | 32.51158 | -111.32345 | 1895 ft | 9 kts | 98° |
| 2026-05-06 21:24 | 32.51142 | -111.32324 | 1894 ft | 0 kts | 135° |